Time;durP1;ratioP1;P1;durP2;ratioP2;P2;SDS_P1;SDS_P2;PMS_P1;PMS_P2;Temp;Humidity;BMP_temperature;BMP_pressure;BME280_temperature;BME280_humidity;BME280_pressure;Samples;Min_cycle;Max_cycle;Signal;HPM_P1;HPM_P2
2023/06/11 00:01:55;;;;;;;3.88;3.55;;;;;;;25.51;50.86;101436.91;5047877;28;20107;-55
2023/06/11 00:04:24;;;;;;;3.72;3.33;;;;;;;25.51;50.58;101440.50;5045818;28;20116;-56
2023/06/11 00:06:53;;;;;;;3.88;3.58;;;;;;;25.51;50.73;101431.44;5044899;28;20399;-56
2023/06/11 00:09:19;;;;;;;3.72;3.42;;;;;;;25.51;50.90;101434.19;5045100;28;20033;-56
2023/06/11 00:11:45;;;;;;;3.60;3.30;;;;;;;25.51;50.76;101436.91;5045519;28;20033;-56
2023/06/11 00:14:10;;;;;;;3.78;3.47;;;;;;;25.50;50.75;101437.94;5046197;28;20088;-56
2023/06/11 00:16:36;;;;;;;3.75;3.45;;;;;;;25.50;50.69;101433.34;5044885;28;20037;-56
2023/06/11 00:19:03;;;;;;;4.03;3.63;;;;;;;25.50;50.93;101436.06;5045115;28;20113;-56
2023/06/11 00:21:29;;;;;;;3.40;3.17;;;;;;;25.50;50.70;101432.50;5045668;28;20029;-56
2023/06/11 00:23:57;;;;;;;3.70;3.40;;;;;;;25.49;51.05;101433.50;5049448;28;20044;-55
2023/06/11 00:26:23;;;;;;;3.97;3.67;;;;;;;25.49;50.88;101431.66;5044918;28;20467;-56
2023/06/11 00:28:48;;;;;;;4.00;3.60;;;;;;;25.49;50.86;101428.06;5045113;28;20029;-55
2023/06/11 00:31:14;;;;;;;3.90;3.60;;;;;;;25.49;50.65;101433.50;5046783;28;20029;-56
2023/06/11 00:33:39;;;;;;;3.53;3.22;;;;;;;25.48;50.82;101429.94;5045870;28;20087;-56
2023/06/11 00:36:05;;;;;;;3.60;3.35;;;;;;;25.48;50.56;101427.22;5044703;28;20041;-56
2023/06/11 00:38:31;;;;;;;3.75;3.45;;;;;;;25.48;50.74;101431.84;5044874;28;20099;-55
2023/06/11 00:40:57;;;;;;;3.90;3.60;;;;;;;25.48;50.84;101427.22;5041407;28;20032;-55
2023/06/11 00:43:23;;;;;;;3.92;3.10;;;;;;;25.48;50.83;101426.38;5045116;28;20437;-55
2023/06/11 00:45:50;;;;;;;3.63;3.33;;;;;;;25.48;50.51;101420.94;5044763;28;20048;-56
2023/06/11 00:48:19;;;;;;;4.10;3.80;;;;;;;25.47;51.00;101419.22;5045395;28;20230;-56
2023/06/11 00:50:48;;;;;;;3.92;3.63;;;;;;;25.46;51.03;101417.53;5045615;28;20041;-55
2023/06/11 00:53:14;;;;;;;4.07;3.78;;;;;;;25.47;50.82;101425.50;5046020;28;20084;-55
2023/06/11 00:55:40;;;;;;;4.15;3.78;;;;;;;25.46;50.66;101423.00;5048076;28;20041;-56
2023/06/11 00:58:13;;;;;;;4.15;3.75;;;;;;;25.45;50.83;101427.56;5046304;28;20025;-56
2023/06/11 01:00:47;;;;;;;4.18;3.80;;;;;;;25.45;50.71;101424.84;5044620;28;20045;-55
2023/06/11 01:03:17;;;;;;;4.00;3.60;;;;;;;25.46;51.01;101432.00;5049838;28;20061;-55
2023/06/11 01:06:01;;;;;;;3.85;3.55;;;;;;;25.47;50.99;101430.13;5049771;28;20031;-56
2023/06/11 01:08:30;;;;;;;3.85;3.55;;;;;;;25.46;50.95;101429.28;5049219;28;20498;-56
2023/06/11 01:10:59;;;;;;;3.70;3.40;;;;;;;25.44;50.97;101425.91;5049450;28;20033;-56
2023/06/11 01:13:25;;;;;;;4.22;3.83;;;;;;;25.44;51.04;101425.06;5048504;28;20029;-55
2023/06/11 01:15:55;;;;;;;3.67;3.38;;;;;;;25.45;50.65;101426.72;5047412;28;20417;-56
2023/06/11 01:18:24;;;;;;;3.72;3.42;;;;;;;25.45;50.85;101426.72;5051781;28;20109;-55
2023/06/11 01:21:04;;;;;;;3.95;3.65;;;;;;;25.45;50.70;101429.47;5046682;28;20021;-56
2023/06/11 01:23:40;;;;;;;3.75;3.45;;;;;;;25.44;50.74;101425.06;5048831;28;20025;-55
2023/06/11 01:26:16;;;;;;;4.07;3.78;;;;;;;25.44;50.68;101422.31;5048612;28;20103;-55
2023/06/11 01:28:49;;;;;;;3.65;3.35;;;;;;;25.43;50.89;101428.78;5049053;28;20029;-55
2023/06/11 01:31:16;;;;;;;3.92;3.63;;;;;;;25.43;50.84;101439.69;5052258;28;20025;-56
2023/06/11 01:33:43;;;;;;;4.22;3.85;;;;;;;25.43;50.81;101440.53;5047500;28;20124;-55
2023/06/11 01:36:10;;;;;;;4.30;3.90;;;;;;;25.43;50.69;101435.09;5049338;28;20091;-56
2023/06/11 01:38:41;;;;;;;4.20;3.80;;;;;;;25.43;50.53;101446.00;5050326;28;20037;-55
2023/06/11 01:41:07;;;;;;;3.60;3.30;;;;;;;25.42;50.78;101433.41;5048886;28;20029;-56
2023/06/11 01:43:33;;;;;;;3.83;3.53;;;;;;;25.42;50.38;101429.81;5048866;28;20546;-56
2023/06/11 01:45:58;;;;;;;4.10;3.70;;;;;;;25.43;50.72;101431.53;5045707;28;20059;-56
2023/06/11 01:48:24;;;;;;;4.00;3.70;;;;;;;25.42;50.75;101438.00;5048101;28;20037;-55
2023/06/11 01:50:50;;;;;;;3.63;3.33;;;;;;;25.41;50.75;101439.88;5048455;28;20025;-56
2023/06/11 01:53:16;;;;;;;3.65;3.35;;;;;;;25.41;50.74;101437.16;5050849;28;20061;-55
2023/06/11 01:55:42;;;;;;;3.80;3.50;;;;;;;25.41;50.65;101433.59;5049086;28;20037;-56
2023/06/11 01:58:08;;;;;;;3.80;3.50;;;;;;;25.40;50.76;101435.47;5047565;28;20082;-55
2023/06/11 02:00:34;;;;;;;3.42;3.17;;;;;;;25.41;50.83;101430.84;5047358;28;20028;-55
2023/06/11 02:03:02;;;;;;;3.80;3.50;;;;;;;25.40;50.76;101434.59;5048385;28;20029;-56
2023/06/11 02:05:28;;;;;;;3.92;3.63;;;;;;;25.40;50.76;101434.59;5048643;28;20059;-55
2023/06/11 02:07:53;;;;;;;3.42;3.15;;;;;;;25.40;50.71;101434.59;5047625;28;20094;-56
2023/06/11 02:10:19;;;;;;;3.70;3.40;;;;;;;25.39;50.77;101428.31;5047522;28;20025;-56
2023/06/11 02:12:44;;;;;;;3.85;3.55;;;;;;;25.39;50.54;101431.03;5054647;28;20047;-56
2023/06/11 02:15:10;;;;;;;3.75;3.45;;;;;;;25.38;50.59;101428.47;5044551;28;20040;-55
2023/06/11 02:17:35;;;;;;;3.75;3.47;;;;;;;25.39;50.60;101430.19;5052933;28;20025;-55
2023/06/11 02:20:01;;;;;;;3.75;3.45;;;;;;;25.38;51.03;101434.81;5047414;28;20082;-56
2023/06/11 02:22:26;;;;;;;3.72;3.42;;;;;;;25.37;50.75;101430.38;5047785;28;20406;-56
2023/06/11 02:24:51;;;;;;;3.90;3.60;;;;;;;25.38;50.62;101440.25;5046919;28;20064;-56
2023/06/11 02:27:17;;;;;;;3.60;3.35;;;;;;;25.37;50.65;101435.81;5047911;28;20037;-55
2023/06/11 02:29:42;;;;;;;3.47;3.22;;;;;;;25.37;50.93;101433.09;5047204;28;20045;-56
2023/06/11 02:32:08;;;;;;;3.47;3.28;;;;;;;25.37;50.81;101433.09;5047871;28;20037;-56
2023/06/11 02:34:33;;;;;;;3.53;3.22;;;;;;;25.36;50.58;101434.97;5050227;28;20466;-56
2023/06/11 02:36:59;;;;;;;3.80;3.50;;;;;;;25.35;50.78;101433.28;5046564;28;20037;-56
2023/06/11 02:39:24;;;;;;;3.67;3.38;;;;;;;25.36;50.92;101434.97;5047638;28;20399;-56
2023/06/11 02:41:50;;;;;;;3.33;3.13;;;;;;;25.36;50.69;101434.97;5048810;28;20029;-56
2023/06/11 02:44:15;;;;;;;3.67;3.38;;;;;;;25.36;51.11;101439.59;5046753;28;20034;-56
2023/06/11 02:46:40;;;;;;;3.28;2.97;;;;;;;25.36;50.85;101436.88;5047172;28;20107;-56
2023/06/11 02:49:06;;;;;;;3.75;3.45;;;;;;;25.34;50.85;101426.13;5047478;28;20037;-56
2023/06/11 02:51:32;;;;;;;3.63;3.33;;;;;;;25.34;50.65;101434.31;5048080;28;20490;-56
2023/06/11 02:53:57;;;;;;;3.78;3.47;;;;;;;25.33;50.76;101432.59;5046735;28;20130;-56
2023/06/11 02:56:22;;;;;;;3.60;3.30;;;;;;;25.34;50.70;101430.72;5047218;28;20056;-55
2023/06/11 02:58:49;;;;;;;3.30;3.10;;;;;;;25.34;50.64;101441.63;5047264;28;20056;-55
2023/06/11 03:01:14;;;;;;;3.70;3.40;;;;;;;25.33;50.67;101434.50;5047174;28;20051;-56
2023/06/11 03:03:40;;;;;;;3.75;3.45;;;;;;;25.33;50.73;101429.03;5046357;28;20029;-55
2023/06/11 03:06:05;;;;;;;3.80;3.50;;;;;;;25.33;50.78;101435.34;5046623;28;20037;-55
2023/06/11 03:08:30;;;;;;;3.53;3.22;;;;;;;25.34;50.85;101438.91;5042783;28;20032;-56
2023/06/11 03:10:56;;;;;;;3.47;3.20;;;;;;;25.33;50.78;101440.78;5050907;28;20028;-56
2023/06/11 03:13:21;;;;;;;3.88;3.58;;;;;;;25.33;50.62;101443.50;5046612;28;20048;-56
2023/06/11 03:15:46;;;;;;;4.35;3.95;;;;;;;25.32;50.66;101433.66;5046562;28;20047;-56
2023/06/11 03:18:12;;;;;;;3.78;3.47;;;;;;;25.33;50.44;101437.22;5055999;28;20064;-55
2023/06/11 03:20:37;;;;;;;3.67;3.38;;;;;;;25.32;50.34;101432.78;5046155;28;20368;-56
2023/06/11 03:23:02;;;;;;;3.97;3.67;;;;;;;25.32;50.68;101441.84;5046156;28;20034;-56
2023/06/11 03:25:28;;;;;;;3.65;3.25;;;;;;;25.31;50.42;101440.13;5046818;28;20483;-55
2023/06/11 03:27:53;;;;;;;3.90;3.60;;;;;;;25.31;50.56;101440.13;5040775;28;20036;-56
2023/06/11 03:30:19;;;;;;;4.15;3.83;;;;;;;25.31;50.63;101442.00;5040777;28;20033;-55
2023/06/11 03:32:44;;;;;;;4.13;3.83;;;;;;;25.30;50.62;101443.03;5043797;28;20352;-56
2023/06/11 03:35:10;;;;;;;4.05;3.75;;;;;;;25.30;50.55;101443.88;5047368;28;20036;-56
2023/06/11 03:37:35;;;;;;;3.40;3.20;;;;;;;25.30;50.36;101441.16;5045923;28;20033;-56
2023/06/11 03:40:01;;;;;;;3.95;3.65;;;;;;;25.29;50.64;101450.34;5046603;28;20033;-56
2023/06/11 03:42:28;;;;;;;4.03;3.65;;;;;;;25.29;50.65;101450.34;5046525;28;20475;-55
2023/06/11 03:44:54;;;;;;;3.65;3.40;;;;;;;25.29;50.51;101444.06;5056154;28;20028;-56
2023/06/11 03:47:19;;;;;;;3.72;3.42;;;;;;;25.29;50.71;101444.06;5045824;28;20466;-56
2023/06/11 03:49:45;;;;;;;4.00;3.70;;;;;;;25.28;50.53;101439.63;5045872;28;20048;-56
2023/06/11 03:52:10;;;;;;;3.70;3.40;;;;;;;25.29;50.59;101449.50;5046148;28;20028;-56
2023/06/11 03:54:36;;;;;;;3.70;3.40;;;;;;;25.28;50.50;101451.38;5045350;28;20048;-56
2023/06/11 03:57:01;;;;;;;3.90;3.60;;;;;;;25.28;50.44;101448.66;5045497;28;20044;-56
2023/06/11 03:59:27;;;;;;;3.58;3.28;;;;;;;25.27;50.56;101446.97;5046632;28;20054;-55
2023/06/11 04:01:52;;;;;;;3.70;3.40;;;;;;;25.27;50.46;101451.56;5046861;28;20028;-56
2023/06/11 04:04:18;;;;;;;3.45;3.25;;;;;;;25.26;50.48;101450.72;5045168;28;20534;-55
2023/06/11 04:06:43;;;;;;;4.05;3.75;;;;;;;25.25;50.58;101446.28;5045310;28;20040;-56
2023/06/11 04:09:08;;;;;;;4.25;3.95;;;;;;;25.26;50.45;101453.44;5048449;28;20071;-56
2023/06/11 04:11:34;;;;;;;3.30;3.05;;;;;;;25.26;50.28;101449.88;5045569;28;20037;-56
2023/06/11 04:14:00;;;;;;;3.60;3.30;;;;;;;25.26;50.28;101447.13;5045922;28;20039;-56
2023/06/11 04:16:26;;;;;;;3.90;3.60;;;;;;;25.25;50.22;101454.47;5045485;28;20116;-56
2023/06/11 04:18:52;;;;;;;4.00;3.67;;;;;;;25.25;50.65;101448.19;5053405;28;20037;-55
2023/06/11 04:21:17;;;;;;;4.00;3.70;;;;;;;25.24;50.19;101451.94;5045608;28;20033;-56
2023/06/11 04:23:43;;;;;;;3.97;3.67;;;;;;;25.25;50.26;101453.63;5044538;28;20025;-56
2023/06/11 04:26:08;;;;;;;4.32;3.92;;;;;;;25.24;50.07;101458.22;5041353;28;20065;-55
2023/06/11 04:28:35;;;;;;;3.90;3.60;;;;;;;25.24;50.13;101458.22;5046187;28;20076;-56
2023/06/11 04:31:01;;;;;;;4.13;3.83;;;;;;;25.22;50.45;101462.97;5047781;28;20061;-56
2023/06/11 04:33:33;;;;;;;4.10;3.80;;;;;;;25.23;50.31;101453.81;5043128;28;20033;-56
2023/06/11 04:36:04;;;;;;;3.83;3.53;;;;;;;25.24;50.56;101462.81;5045301;28;20048;-56
2023/06/11 04:38:30;;;;;;;4.10;3.80;;;;;;;25.22;50.50;101454.78;5045327;28;20075;-55
2023/06/11 04:40:56;;;;;;;3.75;3.45;;;;;;;25.23;50.25;101461.97;5049512;28;20056;-55
2023/06/11 04:43:23;;;;;;;3.85;3.50;;;;;;;25.23;50.29;101456.53;5045295;28;20491;-55
2023/06/11 04:45:49;;;;;;;4.35;3.95;;;;;;;25.23;50.31;101453.81;5044762;28;20048;-56
2023/06/11 04:48:21;;;;;;;4.13;3.83;;;;;;;25.21;50.32;101447.66;5045193;28;20111;-55
2023/06/11 04:50:51;;;;;;;3.70;3.40;;;;;;;25.22;50.45;101454.78;5045637;28;20059;-55
2023/06/11 04:53:27;;;;;;;4.10;3.70;;;;;;;25.20;50.16;101451.41;5044446;28;20056;-55
2023/06/11 04:55:54;;;;;;;3.92;3.63;;;;;;;25.22;50.33;101464.84;5041245;28;20484;-56
2023/06/11 04:58:27;;;;;;;4.38;3.97;;;;;;;25.21;50.74;101461.28;5046054;28;20041;-56
2023/06/11 05:00:56;;;;;;;4.07;3.78;;;;;;;25.21;50.33;101468.59;5041259;28;20513;-55
2023/06/11 05:03:27;;;;;;;4.30;4.00;;;;;;;25.20;50.22;101456.84;5045661;28;20036;-56
2023/06/11 05:05:53;;;;;;;4.45;4.05;;;;;;;25.21;50.26;101469.47;5045592;28;20024;-56
2023/06/11 05:08:20;;;;;;;3.75;3.45;;;;;;;25.20;50.31;101473.19;5045641;28;20033;-56
2023/06/11 05:10:45;;;;;;;4.30;3.70;;;;;;;25.20;50.37;101467.75;5044884;28;20051;-55
2023/06/11 05:13:14;;;;;;;3.75;3.45;;;;;;;25.20;50.24;101462.31;5044906;28;20475;-56
2023/06/11 05:15:40;;;;;;;3.80;3.50;;;;;;;25.18;50.11;101470.66;5045417;28;20029;-56
2023/06/11 05:18:05;;;;;;;3.83;3.53;;;;;;;25.20;49.96;101473.19;5045899;28;20104;-56
2023/06/11 05:20:31;;;;;;;3.40;3.20;;;;;;;25.21;50.15;101479.50;5044350;28;20155;-56
2023/06/11 05:23:02;;;;;;;4.20;3.90;;;;;;;25.21;50.25;101471.31;5044611;28;20112;-55
2023/06/11 05:25:28;;;;;;;;;;;;;;;25.33;50.45;101480.84;5048027;28;20032;-56
2023/06/11 05:27:57;;;;;;;4.00;3.70;;;;;;;25.22;50.04;101482.03;5045113;28;19917;-56
2023/06/11 05:30:25;;;;;;;4.30;3.90;;;;;;;25.21;50.42;101479.50;5044225;28;20151;-56
2023/06/11 05:32:54;;;;;;;4.00;3.60;;;;;;;25.21;50.57;101460.41;5047719;28;20088;-55
2023/06/11 05:35:20;;;;;;;3.67;3.40;;;;;;;25.20;50.21;101470.47;5045060;28;20037;-56
2023/06/11 05:37:46;;;;;;;4.22;3.83;;;;;;;25.19;50.43;101466.06;5044136;28;20041;-55
2023/06/11 05:40:12;;;;;;;3.95;3.47;;;;;;;25.19;50.27;101463.34;5044567;28;20038;-56
2023/06/11 05:42:38;;;;;;;3.72;3.42;;;;;;;25.19;50.27;101468.78;5044907;28;20036;-55
2023/06/11 05:45:05;;;;;;;3.92;3.63;;;;;;;25.18;50.10;101467.09;5046223;28;20171;-56
2023/06/11 05:47:30;;;;;;;4.13;3.83;;;;;;;25.19;50.25;101468.78;5047887;28;20032;-56
2023/06/11 05:49:55;;;;;;;4.40;4.10;;;;;;;25.19;50.38;101468.78;5048700;28;20048;-56
2023/06/11 05:52:21;;;;;;;3.97;3.67;;;;;;;25.19;50.35;101476.97;5048335;28;20025;-56
2023/06/11 05:54:46;;;;;;;4.20;3.90;;;;;;;25.18;50.22;101478.81;5048153;28;20522;-55
2023/06/11 05:57:19;;;;;;;3.83;3.53;;;;;;;25.18;50.16;101470.66;5051098;28;20060;-56
2023/06/11 05:59:44;;;;;;;4.18;3.88;;;;;;;25.18;50.26;101475.25;5051744;28;20028;-55
2023/06/11 06:02:10;;;;;;;4.25;3.85;;;;;;;25.18;50.39;101475.25;5051436;28;20021;-56
2023/06/11 06:04:35;;;;;;;4.57;4.18;;;;;;;25.18;50.37;101481.56;5048299;28;20033;-55
2023/06/11 06:07:00;;;;;;;3.80;3.50;;;;;;;25.19;50.17;101482.44;5047599;28;20064;-56
2023/06/11 06:09:26;;;;;;;4.00;3.70;;;;;;;25.19;50.28;101485.16;5080430;28;20041;-56
2023/06/11 06:11:51;;;;;;;3.53;3.28;;;;;;;25.18;50.28;101483.44;5047718;28;20035;-56
2023/06/11 06:14:16;;;;;;;4.22;3.92;;;;;;;25.18;50.38;101489.72;5047894;28;20060;-55
2023/06/11 06:16:42;;;;;;;4.65;4.15;;;;;;;25.20;50.13;101483.25;5050537;28;20037;-56
2023/06/11 06:19:08;;;;;;;3.67;3.38;;;;;;;25.18;50.32;101489.72;5086479;28;20064;-56
2023/06/11 06:21:33;;;;;;;4.25;3.95;;;;;;;25.18;49.97;101481.56;5051413;28;20067;-55
2023/06/11 06:23:59;;;;;;;3.75;3.45;;;;;;;25.19;50.39;101487.88;5050900;28;20119;-56
2023/06/11 06:26:24;;;;;;;4.22;3.90;;;;;;;25.19;50.22;101487.88;5045944;28;20032;-55
2023/06/11 06:28:52;;;;;;;3.95;3.65;;;;;;;25.19;50.40;101493.31;5048108;28;20037;-55
2023/06/11 06:31:18;;;;;;;4.20;3.50;;;;;;;25.18;49.98;101486.16;5045984;28;20132;-56
2023/06/11 06:33:43;;;;;;;4.20;3.90;;;;;;;25.19;50.26;101496.06;5047688;28;20052;-56
2023/06/11 06:36:09;;;;;;;4.30;3.90;;;;;;;25.20;50.28;101494.16;5047365;28;20040;-56
2023/06/11 06:38:36;;;;;;;4.40;4.00;;;;;;;25.19;50.02;101498.78;5050579;28;20442;-55
2023/06/11 06:41:02;;;;;;;4.63;4.07;;;;;;;25.18;50.13;101489.72;5051560;28;20052;-56
2023/06/11 06:43:27;;;;;;;4.60;4.22;;;;;;;25.20;50.29;101499.63;5050770;28;20045;-56
2023/06/11 06:45:52;;;;;;;4.25;3.85;;;;;;;25.20;50.57;101500.47;5050434;28;20040;-55
2023/06/11 06:48:18;;;;;;;3.67;3.38;;;;;;;25.20;50.37;101497.72;5048045;28;20071;-55
2023/06/11 06:50:43;;;;;;;4.00;3.60;;;;;;;25.19;50.58;101498.78;5049012;28;20494;-55
2023/06/11 06:53:08;;;;;;;4.05;3.75;;;;;;;25.20;50.43;101500.47;5050537;28;20036;-56
2023/06/11 06:55:34;;;;;;;4.10;3.75;;;;;;;25.21;49.98;101493.13;5048903;28;21425;-55
2023/06/11 06:58:00;;;;;;;4.07;3.78;;;;;;;25.20;50.10;101492.28;5053950;28;20044;-56
2023/06/11 07:00:25;;;;;;;3.83;3.53;;;;;;;25.20;50.22;101495.00;5047632;28;20379;-56
2023/06/11 07:02:51;;;;;;;4.20;3.83;;;;;;;25.21;50.13;101495.84;5048800;28;20536;-56
2023/06/11 07:05:16;;;;;;;3.65;3.38;;;;;;;25.20;50.33;101495.00;5050515;28;20033;-56
2023/06/11 07:07:41;;;;;;;4.00;3.70;;;;;;;25.20;50.46;101495.00;5047088;28;20514;-56
2023/06/11 07:10:08;;;;;;;4.50;4.10;;;;;;;25.20;50.13;101489.56;5048959;28;20422;-56
2023/06/11 07:12:33;;;;;;;5.28;3.58;;;;;;;25.20;50.20;101494.16;5051241;28;20029;-56
2023/06/11 07:14:58;;;;;;;4.00;3.70;;;;;;;25.21;50.25;101493.13;5049483;28;20044;-55
2023/06/11 07:17:25;;;;;;;5.65;4.00;;;;;;;25.22;50.22;101497.56;5050021;28;20098;-56
2023/06/11 07:19:51;;;;;;;4.70;4.00;;;;;;;25.20;50.37;101500.47;5049504;28;20382;-56
2023/06/11 07:22:17;;;;;;;4.32;3.92;;;;;;;25.21;50.40;101494.00;5046462;28;20033;-56
2023/06/11 07:24:47;;;;;;;4.25;3.85;;;;;;;25.23;50.20;101500.16;5046869;28;20079;-56
2023/06/11 07:27:12;;;;;;;4.80;4.25;;;;;;;25.22;50.35;101503.00;5045701;28;20037;-55
2023/06/11 07:29:39;;;;;;;4.50;4.10;;;;;;;25.22;50.60;101503.84;5049562;28;20416;-55
2023/06/11 07:32:06;;;;;;;5.45;4.45;;;;;;;25.23;50.39;101500.16;5050633;28;20060;-56
2023/06/11 07:34:31;;;;;;;4.03;3.67;;;;;;;25.24;50.46;101503.72;5048528;28;20116;-55
2023/06/11 07:36:57;;;;;;;4.60;4.20;;;;;;;25.25;50.24;101509.00;5046653;28;20125;-56
2023/06/11 07:39:22;;;;;;;4.40;4.00;;;;;;;25.25;50.48;101508.16;5046821;28;20116;-56
2023/06/11 07:41:47;;;;;;;4.22;3.83;;;;;;;25.25;50.33;101503.53;5047617;28;20057;-55
2023/06/11 07:44:13;;;;;;;3.95;3.65;;;;;;;25.26;50.48;101502.50;5047832;28;20395;-56
2023/06/11 07:46:39;;;;;;;4.45;4.07;;;;;;;25.25;50.13;101500.81;5047062;28;20029;-56
2023/06/11 07:49:04;;;;;;;4.68;4.25;;;;;;;25.27;50.23;101503.38;5046293;28;20033;-56
2023/06/11 07:51:31;;;;;;;4.63;4.22;;;;;;;25.27;50.63;101501.47;5048436;28;20029;-56
2023/06/11 07:53:58;;;;;;;5.28;4.78;;;;;;;25.26;50.23;101502.50;5046863;28;20495;-56
2023/06/11 07:56:26;;;;;;;4.18;3.85;;;;;;;25.27;50.51;101509.66;5047310;28;20057;-56
2023/06/11 07:58:52;;;;;;;4.90;4.50;;;;;;;25.27;50.39;101497.91;5054017;28;20086;-56
2023/06/11 08:01:17;;;;;;;5.30;4.28;;;;;;;25.27;50.41;101501.47;5045008;28;20026;-56
2023/06/11 08:03:43;;;;;;;5.10;4.60;;;;;;;25.26;50.29;101499.75;5046737;28;20062;-56
2023/06/11 08:06:09;;;;;;;4.65;4.20;;;;;;;25.28;50.06;101505.03;5046978;28;20063;-56
2023/06/11 08:08:35;;;;;;;5.78;4.43;;;;;;;25.27;50.38;101504.19;5047271;28;20493;-56
2023/06/11 08:11:01;;;;;;;5.25;4.40;;;;;;;25.26;50.54;101499.75;5045785;28;20427;-56
2023/06/11 08:13:26;;;;;;;4.85;4.40;;;;;;;25.28;50.42;101499.59;5048382;28;20123;-56
2023/06/11 08:15:51;;;;;;;4.40;4.05;;;;;;;25.28;50.60;101496.88;5046958;28;20033;-56
2023/06/11 08:18:17;;;;;;;4.70;4.30;;;;;;;25.27;50.28;101493.31;5050358;28;20426;-56
2023/06/11 08:20:42;;;;;;;4.70;4.30;;;;;;;25.28;50.64;101499.59;5046179;28;20111;-56
2023/06/11 08:23:08;;;;;;;4.75;4.35;;;;;;;25.28;50.35;101492.25;5046380;28;20039;-55
2023/06/11 08:25:33;;;;;;;5.10;4.70;;;;;;;25.28;50.08;101497.72;5048765;28;20036;-56
2023/06/11 08:27:59;;;;;;;6.32;4.45;;;;;;;25.29;50.45;101493.97;5049698;28;20390;-55
2023/06/11 08:30:24;;;;;;;4.72;4.32;;;;;;;25.29;50.30;101485.78;5045839;28;20033;-56
2023/06/11 08:32:50;;;;;;;4.63;4.22;;;;;;;25.29;50.77;101484.94;5048784;28;20048;-56
2023/06/11 08:35:15;;;;;;;5.45;4.57;;;;;;;25.28;50.46;101492.25;5046457;28;20542;-55
2023/06/11 08:37:40;;;;;;;5.18;4.70;;;;;;;25.29;50.50;101485.78;5046754;28;20037;-56
2023/06/11 08:40:08;;;;;;;4.57;4.18;;;;;;;25.29;50.62;101495.84;5046295;28;20460;-56
2023/06/11 08:42:34;;;;;;;4.80;4.13;;;;;;;25.30;50.34;101484.78;5046210;28;20028;-55
2023/06/11 08:45:00;;;;;;;4.80;4.40;;;;;;;25.29;50.46;101483.06;5042006;28;20041;-56
2023/06/11 08:47:29;;;;;;;5.38;4.85;;;;;;;25.29;50.61;101488.50;5046817;28;20387;-56
2023/06/11 08:49:56;;;;;;;4.70;4.30;;;;;;;25.30;50.44;101482.06;5051418;28;20151;-56
2023/06/11 08:52:22;;;;;;;5.30;4.80;;;;;;;25.30;50.43;101473.88;5046233;28;20357;-56
2023/06/11 08:54:48;;;;;;;4.93;4.53;;;;;;;25.30;50.68;101473.88;5046547;28;20437;-55
2023/06/11 08:57:13;;;;;;;4.78;4.32;;;;;;;25.31;50.75;101472.81;5045618;28;20049;-56
2023/06/11 08:59:39;;;;;;;5.43;4.85;;;;;;;25.31;50.51;101474.72;5042722;28;20045;-55
2023/06/11 09:02:05;;;;;;;5.20;4.78;;;;;;;25.32;50.79;101476.41;5048825;28;20032;-55
2023/06/11 09:04:30;;;;;;;5.20;4.68;;;;;;;25.30;50.73;101464.81;5046586;28;20086;-56
2023/06/11 09:07:00;;;;;;;5.13;4.68;;;;;;;25.31;50.57;101469.25;5043016;28;20482;-56
2023/06/11 09:09:26;;;;;;;5.43;4.80;;;;;;;25.30;50.72;101471.16;5042962;28;20041;-56
2023/06/11 09:11:52;;;;;;;6.07;4.90;;;;;;;25.32;50.31;101468.22;5045859;28;20044;-56
2023/06/11 09:14:17;;;;;;;5.60;5.10;;;;;;;25.32;50.53;101471.81;5046385;28;20037;-56
2023/06/11 09:16:45;;;;;;;5.63;5.10;;;;;;;25.32;50.74;101469.09;5045163;28;20488;-55
2023/06/11 09:19:18;;;;;;;5.47;4.97;;;;;;;25.32;50.72;101469.09;5046661;28;20038;-55
2023/06/11 09:21:49;;;;;;;5.28;4.78;;;;;;;25.33;50.67;101468.03;5051754;28;20032;-56
2023/06/11 09:24:14;;;;;;;5.55;5.05;;;;;;;25.35;50.59;101467.88;5049777;28;20112;-56
2023/06/11 09:26:56;;;;;;;6.63;4.97;;;;;;;25.34;50.66;101468.88;5050059;28;20104;-56
2023/06/11 09:29:26;;;;;;;5.50;5.03;;;;;;;25.34;50.62;101461.56;5049891;28;20032;-56
2023/06/11 09:32:05;;;;;;;4.95;4.53;;;;;;;25.36;50.66;101467.69;5053542;28;20052;-55
2023/06/11 09:34:30;;;;;;;5.35;4.72;;;;;;;25.35;50.71;101465.97;5048906;28;20040;-56
2023/06/11 09:36:56;;;;;;;5.57;5.07;;;;;;;25.35;50.79;101465.97;5049560;28;20033;-56
2023/06/11 09:39:21;;;;;;;7.53;5.22;;;;;;;25.36;50.81;101466.84;5049593;28;20068;-55
2023/06/11 09:41:50;;;;;;;5.38;4.95;;;;;;;25.36;50.72;101464.97;5054167;28;20029;-55
2023/06/11 09:44:17;;;;;;;5.70;5.18;;;;;;;25.36;50.75;101469.59;5050406;28;20479;-56
2023/06/11 09:46:43;;;;;;;5.63;5.13;;;;;;;25.36;50.59;101470.41;5052009;28;20033;-55
2023/06/11 09:49:09;;;;;;;5.18;4.75;;;;;;;25.35;50.70;101460.53;5049744;28;20562;-56
2023/06/11 09:51:37;;;;;;;5.97;5.07;;;;;;;25.37;50.96;101468.53;5050002;28;20117;-55
2023/06/11 09:54:04;;;;;;;5.20;4.70;;;;;;;25.38;50.74;101463.91;5047805;28;20046;-56
2023/06/11 09:56:30;;;;;;;5.05;4.65;;;;;;;25.38;50.79;101470.25;5049643;28;20048;-56
2023/06/11 09:58:56;;;;;;;6.05;5.15;;;;;;;25.38;50.70;101470.25;5051930;28;20364;-56
2023/06/11 10:01:25;;;;;;;5.60;5.15;;;;;;;25.38;50.45;101470.25;5048656;28;20084;-56
2023/06/11 10:03:51;;;;;;;5.88;5.10;;;;;;;25.39;50.82;101471.09;5046062;28;20041;-55
2023/06/11 10:06:22;;;;;;;6.35;5.05;;;;;;;25.39;50.85;101476.53;5051956;28;20036;-55
2023/06/11 10:08:51;;;;;;;5.47;5.00;;;;;;;25.39;50.77;101468.34;5049152;28;20455;-56
2023/06/11 10:11:21;;;;;;;5.30;4.82;;;;;;;25.40;50.81;101472.75;5046961;28;20116;-56
2023/06/11 10:14:00;;;;;;;7.60;5.05;;;;;;;25.43;50.84;101466.97;5047181;28;20079;-56
2023/06/11 10:16:27;;;;;;;5.38;4.78;;;;;;;25.41;50.75;101469.03;5048190;28;20030;-56
2023/06/11 10:19:14;;;;;;;5.60;5.10;;;;;;;25.43;50.79;101466.97;5061013;28;20075;-56
2023/06/11 10:21:49;;;;;;;5.22;4.75;;;;;;;25.42;50.80;101470.72;5045043;28;20078;-56
2023/06/11 10:24:21;;;;;;;5.90;5.30;;;;;;;25.42;50.77;101468.84;5045522;28;20029;-56
2023/06/11 10:27:05;;;;;;;5.63;5.22;;;;;;;25.45;50.46;101470.34;5055201;28;20029;-56
2023/06/11 10:29:41;;;;;;;5.75;5.25;;;;;;;25.44;51.04;101463.22;5046606;28;20471;-56
2023/06/11 10:32:15;;;;;;;5.60;5.00;;;;;;;25.44;50.47;101468.69;5043980;28;20040;-55
2023/06/11 10:34:41;;;;;;;5.70;5.20;;;;;;;25.43;51.05;101459.63;5051792;28;20425;-56
2023/06/11 10:37:06;;;;;;;6.15;5.55;;;;;;;25.45;50.59;101467.63;5049255;28;20128;-56
2023/06/11 10:39:32;;;;;;;7.65;5.65;;;;;;;25.45;50.80;101464.91;5051707;28;20122;-56
2023/06/11 10:42:00;;;;;;;6.22;5.50;;;;;;;25.43;50.83;101465.06;5049248;28;20025;-56
2023/06/11 10:44:26;;;;;;;6.38;5.78;;;;;;;25.45;50.87;101462.19;5049776;28;20025;-56
2023/06/11 10:46:53;;;;;;;6.75;5.03;;;;;;;25.45;50.64;101454.00;5050939;28;20513;-56
2023/06/11 10:49:22;;;;;;;5.93;5.43;;;;;;;25.45;50.87;101459.44;5050796;28;20067;-56
2023/06/11 10:51:49;;;;;;;6.32;5.63;;;;;;;25.46;50.85;101466.63;5048572;28;20032;-55
2023/06/11 10:54:32;;;;;;;5.72;5.22;;;;;;;25.48;50.99;101456.38;5050699;28;20059;-56
2023/06/11 10:57:00;;;;;;;7.85;5.00;;;;;;;25.47;50.81;101463.69;5049248;28;20033;-56
2023/06/11 10:59:28;;;;;;;5.95;5.03;;;;;;;25.46;50.59;101463.88;5051267;28;20033;-56
2023/06/11 11:01:54;;;;;;;7.32;5.05;;;;;;;25.47;50.84;101455.50;5048188;28;20182;-56
2023/06/11 11:04:21;;;;;;;7.82;5.55;;;;;;;25.47;50.83;101460.94;5050371;28;20013;-56
2023/06/11 11:06:47;;;;;;;5.45;4.95;;;;;;;25.48;50.93;101453.66;5050024;28;20059;-55
2023/06/11 11:09:20;;;;;;;7.20;5.78;;;;;;;25.48;50.72;101457.22;5048465;28;20040;-56
2023/06/11 11:11:46;;;;;;;6.03;4.90;;;;;;;25.50;50.80;101457.03;5050602;28;20070;-56
2023/06/11 11:14:11;;;;;;;7.75;5.10;;;;;;;25.50;50.91;101457.03;5051585;28;20024;-56
2023/06/11 11:16:37;;;;;;;7.07;5.80;;;;;;;25.50;50.67;101463.34;5051170;28;20031;-56
2023/06/11 11:19:02;;;;;;;6.15;5.65;;;;;;;25.50;50.52;101457.88;5049724;28;20107;-56
2023/06/11 11:21:29;;;;;;;7.30;4.93;;;;;;;25.51;50.76;101453.25;5048210;28;20021;-56
2023/06/11 11:23:55;;;;;;;5.82;5.32;;;;;;;25.52;50.97;101454.97;5047015;28;20032;-56